Time;durP1;ratioP1;P1;durP2;ratioP2;P2;SDS_P1;SDS_P2;PMS_P1;PMS_P2;Temp;Humidity;BMP_temperature;BMP_pressure;BME280_temperature;BME280_humidity;BME280_pressure;Samples;Min_cycle;Max_cycle;Signal;HPM_P1;HPM_P2
2021/04/14 00:00:57;;;;;;;5.03;1.60;;;3.80;1.00;;;;;;5015945;28;20521;-65
2021/04/14 00:03:27;;;;;;;7.07;1.83;;;3.70;1.00;;;;;;5015708;28;20386;-62
2021/04/14 00:05:56;;;;;;;7.07;1.45;;;3.60;1.00;;;;;;5015054;28;20187;-65
2021/04/14 00:08:27;;;;;;;5.93;1.70;;;3.50;1.00;;;;;;5016876;28;20184;-64
2021/04/14 00:10:54;;;;;;;5.88;1.65;;;3.50;1.00;;;;;;5015702;28;20184;-64
2021/04/14 00:13:24;;;;;;;3.38;1.48;;;3.40;1.00;;;;;;5014670;28;20195;-64
2021/04/14 00:15:53;;;;;;;7.38;1.85;;;3.40;1.00;;;;;;5015822;28;20205;-66
2021/04/14 00:18:23;;;;;;;7.63;2.10;;;3.40;1.00;;;;;;5014618;28;20640;-67
2021/04/14 00:20:49;;;;;;;4.93;1.60;;;3.40;1.00;;;;;;5015880;28;20172;-67
2021/04/14 00:23:17;;;;;;;14.20;3.58;;;3.40;1.00;;;;;;5015237;28;20613;-67
2021/04/14 00:25:45;;;;;;;5.00;1.60;;;3.30;1.00;;;;;;5014474;28;20188;-67
2021/04/14 00:28:12;;;;;;;4.28;2.20;;;3.30;7.90;;;;;;5015453;28;20528;-66
2021/04/14 00:30:38;;;;;;;9.15;2.20;;;3.40;8.70;;;;;;5015521;28;20171;-66
2021/04/14 00:33:04;;;;;;;4.70;1.90;;;3.40;10.60;;;;;;5015185;28;20194;-66
2021/04/14 00:35:29;;;;;;;5.50;2.03;;;3.40;8.20;;;;;;5014148;28;20524;-66
2021/04/14 00:37:55;;;;;;;4.07;2.17;;;3.40;14.00;;;;;;5014995;28;20276;-66
2021/04/14 00:40:29;;;;;;;8.43;2.13;;;3.30;23.70;;;;;;5015515;28;20753;-66
2021/04/14 00:42:56;;;;;;;3.58;1.92;;;3.30;34.10;;;;;;5015055;28;20426;-66
2021/04/14 00:45:22;;;;;;;3.70;1.80;;;3.30;43.00;;;;;;5014816;28;20180;-66
2021/04/14 00:47:48;;;;;;;5.13;2.22;;;3.20;51.90;;;;;;5015046;28;20175;-67
2021/04/14 00:50:18;;;;;;;8.95;2.45;;;3.20;62.70;;;;;;5013966;28;20720;-66
2021/04/14 00:52:44;;;;;;;7.72;2.35;;;3.20;91.80;;;;;;5014861;28;20229;-66
2021/04/14 00:55:14;;;;;;;14.70;2.87;;;3.30;95.70;;;;;;5014683;28;20194;-66
2021/04/14 00:57:40;;;;;;;7.55;2.17;;;3.40;93.30;;;;;;5015076;28;20462;-66
2021/04/14 01:00:18;;;;;;;11.43;1.90;;;3.40;92.50;;;;;;5014841;28;20539;-66
2021/04/14 01:02:44;;;;;;;5.53;1.88;;;3.40;85.40;;;;;;5014691;28;20178;-66
2021/04/14 01:05:12;;;;;;;3.53;1.80;;;3.30;85.50;;;;;;5014824;28;20183;-66
2021/04/14 01:07:38;;;;;;;5.65;2.00;;;3.40;91.10;;;;;;5014718;28;20186;-66
2021/04/14 01:10:04;;;;;;;6.72;2.35;;;3.40;92.70;;;;;;5014610;28;20183;-66
2021/04/14 01:12:30;;;;;;;4.65;1.63;;;3.40;92.70;;;;;;5014776;28;20650;-66
2021/04/14 01:14:56;;;;;;;5.93;2.10;;;3.40;87.10;;;;;;5014283;28;20191;-66
2021/04/14 01:17:21;;;;;;;8.17;2.23;;;3.30;80.60;;;;;;5014423;28;20248;-66
2021/04/14 01:19:47;;;;;;;5.23;2.00;;;3.40;89.40;;;;;;5014543;28;20203;-66
2021/04/14 01:22:13;;;;;;;9.07;2.65;;;3.50;99.90;;;;;;5013920;28;20212;-66
2021/04/14 01:24:38;;;;;;;4.00;2.00;;;3.50;92.50;;;;;;5013131;28;20207;-66
2021/04/14 01:27:04;;;;;;;7.03;1.73;;;3.60;93.10;;;;;;5014459;28;20206;-66
2021/04/14 01:29:30;;;;;;;9.63;2.07;;;3.70;69.30;;;;;;5014353;28;20183;-66
2021/04/14 01:31:55;;;;;;;4.67;2.17;;;3.70;47.60;;;;;;5014233;28;20430;-66
2021/04/14 01:34:21;;;;;;;11.30;2.30;;;3.60;26.00;;;;;;5013896;28;20265;-66
2021/04/14 01:36:47;;;;;;;6.10;2.00;;;3.60;30.10;;;;;;5013640;28;20199;-66
2021/04/14 01:39:13;;;;;;;10.13;2.30;;;3.50;32.00;;;;;;5013947;28;20241;-66
2021/04/14 01:41:39;;;;;;;6.90;2.50;;;3.50;35.80;;;;;;5014411;28;20210;-66
2021/04/14 01:44:10;;;;;;;6.65;1.70;;;3.50;46.40;;;;;;5013937;28;20266;-65
2021/04/14 01:46:39;;;;;;;5.45;2.63;;;3.50;54.80;;;;;;5013917;28;20242;-62
2021/04/14 01:49:05;;;;;;;7.18;2.10;;;3.50;56.60;;;;;;5014007;28;20220;-62
2021/04/14 01:51:31;;;;;;;3.05;1.60;;;3.50;55.50;;;;;;5013979;28;20187;-62
2021/04/14 01:53:57;;;;;;;5.30;1.60;;;3.40;56.70;;;;;;5013686;28;20183;-62
2021/04/14 01:56:22;;;;;;;2.63;1.70;;;3.20;90.60;;;;;;5014006;28;20195;-63
2021/04/14 01:58:48;;;;;;;7.93;2.50;;;3.20;99.90;;;;;;5013826;28;20202;-62
2021/04/14 02:01:13;;;;;;;6.30;2.20;;;3.10;99.90;;;;;;5014231;28;20257;-64
2021/04/14 02:03:40;;;;;;;6.73;2.00;;;3.10;99.90;;;;;;5013544;28;20263;-65
2021/04/14 02:06:08;;;;;;;8.10;2.55;;;3.10;99.90;;;;;;5013815;28;20488;-65
2021/04/14 02:08:34;;;;;;;7.32;2.15;;;3.10;99.90;;;;;;5012785;28;20213;-67
2021/04/14 02:10:59;;;;;;;5.40;2.20;;;3.10;99.90;;;;;;5013764;28;20179;-67
2021/04/14 02:13:31;;;;;;;10.17;2.93;;;3.10;99.90;;;;;;5013444;28;20187;-67
2021/04/14 02:15:57;;;;;;;6.82;2.28;;;3.00;99.90;;;;;;5013650;28;20194;-67
2021/04/14 02:18:24;;;;;;;14.07;2.20;;;3.00;99.90;;;;;;5013684;28;20207;-67
2021/04/14 02:20:50;;;;;;;4.97;2.63;;;3.00;99.90;;;;;;5012737;28;20194;-67
2021/04/14 02:23:20;;;;;;;8.45;2.78;;;3.00;99.90;;;;;;5013405;28;20194;-67
2021/04/14 02:25:46;;;;;;;7.90;2.60;;;3.00;99.90;;;;;;5013694;28;20178;-68
2021/04/14 02:28:14;;;;;;;8.00;2.70;;;2.90;99.90;;;;;;5013443;28;20518;-67
2021/04/14 02:30:40;;;;;;;4.85;2.00;;;2.90;99.90;;;;;;5013569;28;20180;-66
2021/04/14 02:33:07;;;;;;;7.47;2.00;;;2.90;99.90;;;;;;5012307;28;20195;-64
2021/04/14 02:35:34;;;;;;;5.40;1.83;;;3.00;99.90;;;;;;5015600;28;20425;-63
2021/04/14 02:37:59;;;;;;;4.05;1.73;;;3.00;99.90;;;;;;5017409;28;20219;-63
2021/04/14 02:40:25;;;;;;;8.50;2.03;;;2.90;99.90;;;;;;5017562;28;20180;-63
2021/04/14 02:42:51;;;;;;;7.82;2.10;;;3.00;99.90;;;;;;5017279;28;20194;-63
2021/04/14 02:45:20;;;;;;;8.60;2.23;;;3.00;99.90;;;;;;5017173;28;20175;-63
2021/04/14 02:47:46;;;;;;;4.90;1.52;;;3.00;99.90;;;;;;5017558;28;20174;-63
2021/04/14 02:50:12;;;;;;;6.37;1.93;;;3.00;99.90;;;;;;5017228;28;20620;-63
2021/04/14 02:52:38;;;;;;;5.45;2.53;;;2.90;99.90;;;;;;5017296;28;20650;-64
2021/04/14 02:55:06;;;;;;;4.23;1.93;;;2.90;99.90;;;;;;5016985;28;20195;-63
2021/04/14 02:57:31;;;;;;;4.13;1.90;;;3.00;99.90;;;;;;5016963;28;20499;-63
2021/04/14 02:59:57;;;;;;;6.50;2.00;;;3.10;99.90;;;;;;5017020;28;20611;-64
2021/04/14 03:02:23;;;;;;;12.00;4.63;;;3.10;99.90;;;;;;5017001;28;20183;-64
2021/04/14 03:04:54;;;;;;;7.13;2.50;;;3.10;99.90;;;;;;5016724;28;20189;-64
2021/04/14 03:07:20;;;;;;;9.73;2.35;;;3.20;98.70;;;;;;5015991;28;20179;-64
2021/04/14 03:09:45;;;;;;;7.03;2.37;;;3.10;81.20;;;;;;5016855;28;20270;-65
2021/04/14 03:12:12;;;;;;;7.07;2.43;;;3.00;76.40;;;;;;5016878;28;20562;-65
2021/04/14 03:14:38;;;;;;;2.80;1.65;;;3.00;92.20;;;;;;5016756;28;20190;-62
2021/04/14 03:17:03;;;;;;;5.33;2.00;;;3.00;95.30;;;;;;5016914;28;20182;-64
2021/04/14 03:19:29;;;;;;;3.20;2.00;;;3.00;94.50;;;;;;5016775;28;20286;-64
2021/04/14 03:21:55;;;;;;;12.40;2.30;;;2.90;86.10;;;;;;5016573;28;20193;-64
2021/04/14 03:24:20;;;;;;;4.17;1.43;;;3.00;93.10;;;;;;5016372;28;20174;-64
2021/04/14 03:26:46;;;;;;;7.50;2.43;;;2.90;94.90;;;;;;5016536;28;20450;-64
2021/04/14 03:29:11;;;;;;;1.73;1.40;;;2.80;99.90;;;;;;5016412;28;20183;-64
2021/04/14 03:31:37;;;;;;;4.40;2.03;;;2.80;99.90;;;;;;5016485;28;20492;-65
2021/04/14 03:34:03;;;;;;;4.23;1.40;;;2.80;99.90;;;;;;5016089;28;20237;-64
2021/04/14 03:36:28;;;;;;;6.13;2.43;;;2.80;99.90;;;;;;5016245;28;20202;-65
2021/04/14 03:38:54;;;;;;;6.13;2.20;;;2.90;99.90;;;;;;5016297;28;20280;-65
2021/04/14 03:41:20;;;;;;;4.50;2.20;;;2.90;99.90;;;;;;5016262;28;20183;-65
2021/04/14 03:43:46;;;;;;;5.37;1.93;;;2.80;99.90;;;;;;5015914;28;20186;-65
2021/04/14 03:46:14;;;;;;;6.50;1.80;;;2.90;99.90;;;;;;5015611;28;20245;-65
2021/04/14 03:48:40;;;;;;;3.95;1.45;;;2.90;99.90;;;;;;5016115;28;20190;-65
2021/04/14 03:51:06;;;;;;;3.73;1.60;;;2.90;99.90;;;;;;5016001;28;20175;-65
2021/04/14 03:53:34;;;;;;;10.33;1.90;;;2.80;99.90;;;;;;5014792;28;20194;-65
2021/04/14 03:56:09;;;;;;;11.57;5.07;;;2.80;99.90;;;;;;5016016;28;20265;-65
2021/04/14 03:58:37;;;;;;;2.90;1.80;;;2.90;99.90;;;;;;5015899;28;20301;-64
2021/04/14 04:01:06;;;;;;;8.68;2.47;;;2.90;99.90;;;;;;5015994;28;20595;-63
2021/04/14 04:03:32;;;;;;;2.55;1.85;;;2.80;99.90;;;;;;5015587;28;20658;-64
2021/04/14 04:05:57;;;;;;;4.10;1.43;;;2.80;99.90;;;;;;5016201;28;20178;-65
2021/04/14 04:08:23;;;;;;;3.77;2.00;;;2.80;99.90;;;;;;5015969;28;20500;-64
2021/04/14 04:10:49;;;;;;;4.40;1.80;;;2.80;99.90;;;;;;5015833;28;20183;-64
2021/04/14 04:13:15;;;;;;;6.53;2.20;;;2.80;99.90;;;;;;5015326;28;20500;-63
2021/04/14 04:15:41;;;;;;;4.07;2.15;;;2.80;99.90;;;;;;5015741;28;20171;-63
2021/04/14 04:18:07;;;;;;;4.13;1.50;;;2.80;99.40;;;;;;5015416;28;20210;-64
2021/04/14 04:20:34;;;;;;;11.23;2.10;;;2.80;98.80;;;;;;5015489;28;20643;-64
2021/04/14 04:23:01;;;;;;;4.47;2.60;;;2.80;99.90;;;;;;5015672;28;20190;-63
2021/04/14 04:25:27;;;;;;;4.45;2.58;;;2.80;99.90;;;;;;5015380;28;20273;-63
2021/04/14 04:27:53;;;;;;;3.75;2.20;;;2.70;99.90;;;;;;5015583;28;20197;-63
2021/04/14 04:30:19;;;;;;;4.97;2.10;;;2.70;99.90;;;;;;5015733;28;20259;-63
2021/04/14 04:32:44;;;;;;;4.70;2.40;;;2.80;99.90;;;;;;5015619;28;20248;-63
2021/04/14 04:35:10;;;;;;;9.33;2.40;;;2.90;99.90;;;;;;5015122;28;20200;-63
2021/04/14 04:37:36;;;;;;;7.70;2.92;;;2.90;99.90;;;;;;5015338;28;20186;-63
2021/04/14 04:40:04;;;;;;;6.07;2.93;;;3.00;99.90;;;;;;5015027;28;20195;-63
2021/04/14 04:42:30;;;;;;;8.45;1.98;;;3.10;99.90;;;;;;5015325;28;20172;-63
2021/04/14 04:44:55;;;;;;;4.40;2.23;;;3.20;90.50;;;;;;5015037;28;20480;-63
2021/04/14 04:47:21;;;;;;;6.90;2.20;;;3.20;74.70;;;;;;5015201;28;20202;-63
2021/04/14 04:49:46;;;;;;;2.70;1.77;;;3.30;33.60;;;;;;5016070;28;20223;-63
2021/04/14 04:52:12;;;;;;;4.13;1.87;;;3.30;17.40;;;;;;5019140;28;20195;-64
2021/04/14 04:54:37;;;;;;;6.20;2.50;;;3.30;14.10;;;;;;5018342;28;20194;-64
2021/04/14 04:57:03;;;;;;;4.80;2.60;;;3.50;10.20;;;;;;5014484;28;20226;-64
2021/04/14 04:59:29;;;;;;;9.50;2.50;;;3.90;1.00;;;;;;5016505;28;20251;-64
2021/04/14 05:01:58;;;;;;;4.80;2.57;;;4.30;1.00;;;;;;5016390;28;20422;-64
2021/04/14 05:04:24;;;;;;;6.47;2.90;;;4.60;1.00;;;;;;5017916;28;20210;-63
2021/04/14 05:06:49;;;;;;;6.70;2.50;;;5.10;1.00;;;;;;5016058;28;20327;-63
2021/04/14 05:09:15;;;;;;;3.73;1.97;;;5.50;1.00;;;;;;5017423;28;20179;-64
2021/04/14 05:11:41;;;;;;;4.03;1.80;;;5.30;17.90;;;;;;5015458;28;20184;-64
2021/04/14 05:14:07;;;;;;;10.10;3.07;;;4.90;99.90;;;;;;5014398;28;20195;-64
2021/04/14 05:16:32;;;;;;;6.53;2.20;;;4.60;1.00;;;;;;5014528;28;20187;-64
2021/04/14 05:18:58;;;;;;;9.60;2.03;;;4.80;99.90;;;;;;5014691;28;20215;-64
2021/04/14 05:21:24;;;;;;;7.43;2.20;;;4.60;56.40;;;;;;5014456;28;20200;-64
2021/04/14 05:23:50;;;;;;;3.43;2.47;;;4.70;99.90;;;;;;5014261;28;20184;-64
2021/04/14 05:26:16;;;;;;;6.30;2.22;;;5.80;99.90;;;;;;5014220;28;20484;-64
2021/04/14 05:28:43;;;;;;;2.55;2.10;;;6.90;99.90;;;;;;5014209;28;20592;-64
2021/04/14 05:31:10;;;;;;;4.03;1.92;;;7.30;1.00;;;;;;5014190;28;20185;-64
2021/04/14 05:33:36;;;;;;;2.38;1.70;;;8.00;1.00;;;;;;5014104;28;20200;-64
2021/04/14 05:36:02;;;;;;;7.53;1.87;;;8.90;1.00;;;;;;5014371;28;20190;-64
2021/04/14 05:38:29;;;;;;;5.63;2.00;;;8.30;1.00;;;;;;5013655;28;20467;-64
2021/04/14 05:40:55;;;;;;;3.95;2.00;;;7.10;1.00;;;;;;5013910;28;20193;-65
2021/04/14 05:43:24;;;;;;;7.53;2.53;;;6.10;1.00;;;;;;5013761;28;20243;-64
2021/04/14 05:45:55;;;;;;;5.43;1.95;;;5.50;99.90;;;;;;5013956;28;20886;-64
2021/04/14 05:48:20;;;;;;;4.70;1.48;;;4.90;1.00;;;;;;5014045;28;20190;-64
2021/04/14 05:50:46;;;;;;;7.33;2.00;;;4.60;50.00;;;;;;5013672;28;20267;-63
2021/04/14 05:53:12;;;;;;;5.90;1.70;;;4.50;99.90;;;;;;5013596;28;20189;-63
2021/04/14 05:55:37;;;;;;;2.30;1.83;;;4.70;99.90;;;;;;5013779;28;20195;-63
2021/04/14 05:58:03;;;;;;;7.43;3.07;;;4.60;99.90;;;;;;5013454;28;20213;-63
2021/04/14 06:00:29;;;;;;;8.53;1.77;;;4.60;99.90;;;;;;5013562;28;20211;-64
2021/04/14 06:02:54;;;;;;;3.27;1.70;;;4.80;99.90;;;;;;5013550;28;20179;-64
2021/04/14 06:05:22;;;;;;;2.93;1.70;;;5.90;1.00;;;;;;5013468;28;20176;-64
2021/04/14 06:07:48;;;;;;;2.70;1.70;;;6.40;99.90;;;;;;5013796;28;20602;-64
2021/04/14 06:10:20;;;;;;;5.33;2.37;;;6.40;1.00;;;;;;5012387;28;20199;-63
2021/04/14 06:12:47;;;;;;;7.40;1.88;;;7.40;1.00;;;;;;5013574;28;20531;-62
2021/04/14 06:15:16;;;;;;;10.55;1.80;;;7.80;99.90;;;;;;5013487;28;20652;-63
2021/04/14 06:17:42;;;;;;;3.38;1.88;;;6.70;99.90;;;;;;5013683;28;20223;-62
2021/04/14 06:20:10;;;;;;;4.82;1.38;;;6.70;1.00;;;;;;5012371;28;20565;-63
2021/04/14 06:22:36;;;;;;;1.65;1.25;;;7.70;1.00;;;;;;5013448;28;20200;-63
2021/04/14 06:25:06;;;;;;;9.73;3.63;;;8.40;99.90;;;;;;5013096;28;20176;-63
2021/04/14 06:28:06;;;;;;;4.97;2.30;;;9.00;1.00;;;;;;5013711;28;20187;-63
2021/04/14 06:30:23;;;;;;;4.70;2.40;;;9.80;1.00;;;;;;5012296;28;20197;-63
2021/04/14 06:32:49;;;;;;;7.90;2.00;;;10.20;99.90;;;;;;5008497;28;20182;-59
2021/04/14 06:35:16;;;;;;;4.67;2.50;;;9.90;99.90;;;;;;5028950;28;20441;-62
2021/04/14 06:37:43;;;;;;;8.18;1.80;;;8.90;1.00;;;;;;5013935;28;20241;-64
2021/04/14 06:43:10;;;;;;;3.60;1.80;;;10.70;99.90;;;;;;5029035;28;20193;-63
2021/04/14 06:45:50;;;;;;;2.33;1.30;;;9.80;99.90;;;;;;5033585;28;20661;-64
2021/04/14 06:48:43;;;;;;;5.75;2.00;;;9.80;99.90;;;;;;5033703;28;20177;-66
2021/04/14 06:51:38;;;;;;;2.85;1.30;;;8.70;1.00;;;;;;4994309;28;20190;-63
2021/04/14 06:54:17;;;;;;;2.55;1.40;;;9.30;1.00;;;;;;4994068;28;20237;-63
2021/04/14 06:56:43;;;;;;;8.30;1.55;;;9.70;99.90;;;;;;4994209;28;20559;-64
2021/04/14 06:59:18;;;;;;;2.97;1.23;;;8.60;1.00;;;;;;5007091;28;20209;-64
2021/04/14 07:02:03;;;;;;;4.15;2.13;;;8.30;18.80;;;;;;5013673;28;20192;-62
2021/04/14 07:04:35;;;;;;;3.53;1.55;;;9.60;1.00;;;;;;5013335;28;20174;-63
2021/04/14 07:07:03;;;;;;;3.45;2.05;;;9.00;1.00;;;;;;5013639;28;20910;-64
2021/04/14 07:09:40;;;;;;;4.75;1.50;;;8.40;1.00;;;;;;5013794;28;20179;-64
2021/04/14 07:12:14;;;;;;;2.58;1.30;;;7.60;1.00;;;;;;5012965;28;20534;-63
2021/04/14 07:14:40;;;;;;;6.05;1.67;;;6.60;1.00;;;;;;5013899;28;20209;-64
2021/04/14 07:17:22;;;;;;;2.30;1.40;;;6.10;99.90;;;;;;5013869;28;20236;-64
2021/04/14 07:20:14;;;;;;;5.88;3.30;;;6.30;99.90;;;;;;5013546;28;20471;-61
2021/04/14 07:22:44;;;;;;;5.00;1.45;;;6.40;1.00;;;;;;5017107;28;20819;-62
2021/04/14 07:25:16;;;;;;;3.88;1.50;;;6.40;99.90;;;;;;5032559;28;20199;-63
2021/04/14 07:28:00;;;;;;;4.25;1.85;;;6.60;1.00;;;;;;5016930;28;20238;-63
2021/04/14 07:30:31;;;;;;;4.43;1.20;;;6.40;99.90;;;;;;5017145;28;20625;-64
2021/04/14 07:33:54;;;;;;;2.38;1.75;;;6.50;99.90;;;;;;5016991;28;20189;-63
2021/04/14 07:36:31;;;;;;;3.55;1.30;;;6.60;1.00;;;;;;4956612;29;20190;-61
2021/04/14 07:39:01;;;;;;;5.55;2.38;;;6.90;1.00;;;;;;4956655;29;20225;-61
2021/04/14 07:41:37;;;;;;;2.58;1.30;;;7.00;99.90;;;;;;4991858;28;20231;-63
2021/04/14 07:44:24;;;;;;;4.50;1.50;;;7.50;1.00;;;;;;5016565;28;20517;-63
2021/04/14 07:46:50;;;;;;;7.35;1.15;;;7.70;99.90;;;;;;5016976;28;20269;-61
2021/04/14 07:49:20;;;;;;;5.33;1.43;;;6.80;1.00;;;;;;5016810;28;20218;-62
2021/04/14 07:51:46;;;;;;;9.50;3.40;;;6.50;1.00;;;;;;5016826;28;20194;-60
2021/04/14 07:54:16;;;;;;;4.13;1.50;;;6.40;1.00;;;;;;5015064;28;20189;-61
2021/04/14 07:56:46;;;;;;;2.00;1.15;;;6.40;1.00;;;;;;4999339;28;20201;-62
2021/04/14 07:59:16;;;;;;;0.75;0.75;;;6.20;1.00;;;;;;5016544;28;20212;-62
2021/04/14 08:02:08;;;;;;;2.90;1.15;;;5.70;99.90;;;;;;5015723;28;20522;-63
2021/04/14 08:04:38;;;;;;;1.88;0.90;;;5.40;1.00;;;;;;5001394;28;20180;-64
2021/04/14 08:07:08;;;;;;;3.38;1.48;;;5.10;44.60;;;;;;5015920;28;20178;-64
2021/04/14 08:09:34;;;;;;;4.63;1.80;;;5.10;99.90;;;;;;5012465;28;20671;-63
2021/04/14 08:12:06;;;;;;;3.53;1.20;;;5.10;1.00;;;;;;5016796;28;20192;-63
2021/04/14 08:14:36;;;;;;;1.52;1.10;;;5.00;1.00;;;;;;5016738;28;20445;-63
2021/04/14 08:17:21;;;;;;;2.05;1.38;;;5.40;1.00;;;;;;5016128;28;20214;-63
2021/04/14 08:19:59;;;;;;;2.65;1.67;;;5.80;99.90;;;;;;5016399;28;20193;-62
2021/04/14 08:22:27;;;;;;;0.80;0.80;;;6.00;99.90;;;;;;5016261;28;20157;-64
2021/04/14 08:25:01;;;;;;;1.58;0.95;;;6.40;1.00;;;;;;5031443;28;20212;-62
2021/04/14 08:27:30;;;;;;;5.60;3.03;;;6.70;1.00;;;;;;5016017;28;20187;-65
2021/04/14 08:30:02;;;;;;;2.47;1.65;;;6.50;56.50;;;;;;5015940;28;20182;-65
2021/04/14 08:32:35;;;;;;;4.45;2.55;;;6.40;99.90;;;;;;5015345;28;20197;-65
2021/04/14 08:35:06;;;;;;;3.13;1.13;;;6.30;1.00;;;;;;5015516;28;20185;-65
2021/04/14 08:37:32;;;;;;;2.50;1.20;;;6.30;99.90;;;;;;5015638;28;20317;-65
2021/04/14 08:40:00;;;;;;;2.50;0.98;;;6.20;1.00;;;;;;5015926;28;20190;-65
2021/04/14 08:42:31;;;;;;;6.00;1.92;;;6.10;1.00;;;;;;5015701;28;20184;-64
2021/04/14 08:45:25;;;;;;;4.45;2.00;;;6.20;1.00;;;;;;5015577;28;20618;-65
2021/04/14 08:48:05;;;;;;;3.35;1.10;;;6.80;99.90;;;;;;5008902;28;20194;-64
2021/04/14 08:50:34;;;;;;;3.22;0.95;;;6.50;99.90;;;;;;5015508;28;20196;-62
2021/04/14 08:53:06;;;;;;;1.65;1.20;;;6.40;99.90;;;;;;5015425;28;20201;-64
2021/04/14 08:55:32;;;;;;;3.67;1.15;;;6.50;99.90;;;;;;5017548;28;20201;-63
2021/04/14 08:57:59;;;;;;;4.30;1.50;;;6.50;99.90;;;;;;5018082;28;20211;-63
2021/04/14 09:00:26;;;;;;;3.58;1.42;;;6.80;99.90;;;;;;5022401;28;20534;-65
2021/04/14 09:02:58;;;;;;;3.80;1.67;;;6.60;1.00;;;;;;5023457;28;20511;-65
2021/04/14 09:05:25;;;;;;;1.73;0.98;;;6.40;1.00;;;;;;5026572;28;20202;-65
2021/04/14 09:07:54;;;;;;;5.90;1.45;;;6.20;1.00;;;;;;5019760;28;20193;-65
2021/04/14 09:10:42;;;;;;;2.40;1.00;;;6.70;29.00;;;;;;5023344;28;20227;-65
2021/04/14 09:13:10;;;;;;;3.38;1.35;;;7.00;1.00;;;;;;5029826;28;20526;-64
2021/04/14 09:15:58;;;;;;;3.97;1.20;;;6.80;1.00;;;;;;5014516;28;20187;-63
2021/04/14 09:18:42;;;;;;;5.53;1.73;;;7.50;1.00;;;;;;5020899;28;20221;-64
2021/04/14 09:21:12;;;;;;;2.55;1.40;;;7.80;1.00;;;;;;5019485;28;20212;-64
2021/04/14 09:23:50;;;;;;;2.05;0.95;;;7.60;67.40;;;;;;5022710;28;20193;-66
2021/04/14 09:26:32;;;;;;;4.43;1.25;;;7.70;1.00;;;;;;4995189;28;20187;-62
2021/04/14 09:28:59;;;;;;;4.80;1.70;;;7.70;1.00;;;;;;5004685;28;20230;-62
2021/04/14 09:31:41;;;;;;;2.97;1.20;;;8.00;1.00;;;;;;5015267;28;20261;-65
2021/04/14 09:34:18;;;;;;;3.75;1.40;;;8.30;99.90;;;;;;5014149;28;20187;-65
2021/04/14 09:36:49;;;;;;;2.13;1.00;;;8.40;99.90;;;;;;5012729;28;20189;-66
2021/04/14 09:39:34;;;;;;;1.70;1.00;;;8.60;99.90;;;;;;5013005;28;20202;-61
2021/04/14 09:42:00;;;;;;;7.03;1.25;;;8.10;99.90;;;;;;5014488;28;20556;-60
2021/04/14 09:44:38;;;;;;;2.10;1.50;;;7.70;99.90;;;;;;5013052;28;20181;-64
2021/04/14 09:47:35;;;;;;;6.45;1.33;;;7.60;99.90;;;;;;5014577;28;20235;-67
2021/04/14 09:50:30;;;;;;;4.63;1.10;;;8.10;99.90;;;;;;5002156;28;20195;-67
2021/04/14 09:52:58;;;;;;;3.78;1.60;;;7.30;99.90;;;;;;5014052;28;20800;-65
2021/04/14 09:55:34;;;;;;;2.55;0.77;;;7.30;1.00;;;;;;5013385;28;20182;-65
2021/04/14 09:58:11;;;;;;;2.33;0.75;;;7.50;99.90;;;;;;5014132;28;20217;-66
2021/04/14 10:00:44;;;;;;;1.98;1.20;;;7.90;31.90;;;;;;5013638;28;20265;-62
2021/04/14 10:03:27;;;;;;;4.63;0.85;;;7.70;1.00;;;;;;5013299;28;20274;-61
2021/04/14 10:05:55;;;;;;;4.35;2.15;;;7.50;1.00;;;;;;5012539;28;20256;-61
2021/04/14 10:08:21;;;;;;;3.88;2.08;;;7.70;1.00;;;;;;5031201;28;20192;-59
2021/04/14 10:10:50;;;;;;;3.42;1.30;;;7.70;1.00;;;;;;5010048;28;20198;-59
2021/04/14 10:13:18;;;;;;;3.25;1.15;;;7.90;1.00;;;;;;5013473;28;20190;-60
2021/04/14 10:15:46;;;;;;;0.80;0.60;;;8.20;1.00;;;;;;5014027;28;20685;-59
2021/04/14 10:18:24;;;;;;;3.85;1.80;;;8.00;1.00;;;;;;5012052;28;20220;-59
2021/04/14 10:20:50;;;;;;;2.13;1.15;;;8.20;1.00;;;;;;5011722;28;20174;-60
2021/04/14 10:23:21;;;;;;;1.45;0.55;;;8.90;1.00;;;;;;5010834;28;20185;-60
2021/04/14 10:25:47;;;;;;;4.65;1.00;;;9.00;1.00;;;;;;5011744;28;20565;-59
2021/04/14 10:28:21;;;;;;;3.60;0.90;;;8.80;1.00;;;;;;5011557;28;20522;-59
2021/04/14 10:31:08;;;;;;;2.75;1.10;;;8.70;1.00;;;;;;5012284;28;20179;-60
2021/04/14 10:33:38;;;;;;;6.05;1.60;;;8.90;1.00;;;;;;5012206;28;20657;-60
2021/04/14 10:36:31;;;;;;;4.18;1.02;;;8.40;1.00;;;;;;5013503;28;20241;-59
2021/04/14 10:39:11;;;;;;;2.15;1.13;;;8.50;1.00;;;;;;5013231;28;20222;-59
2021/04/14 10:41:37;;;;;;;3.33;1.02;;;9.10;1.00;;;;;;5013625;28;20181;-59
2021/04/14 10:44:13;;;;;;;4.20;1.03;;;9.80;1.00;;;;;;5012109;28;20183;-59
2021/04/14 10:46:39;;;;;;;3.08;0.93;;;9.80;1.00;;;;;;5013290;28;20546;-59
2021/04/14 10:49:10;;;;;;;1.87;0.77;;;9.30;9.40;;;;;;5012682;28;20654;-59
2021/04/14 10:51:46;;;;;;;2.38;1.20;;;8.50;99.90;;;;;;5013370;28;20190;-59
2021/04/14 10:54:14;;;;;;;2.25;1.20;;;8.40;99.90;;;;;;5013266;28;20186;-59
2021/04/14 10:56:40;;;;;;;2.20;1.05;;;8.50;99.90;;;;;;5015496;28;20178;-59
2021/04/14 10:59:09;;;;;;;5.22;1.42;;;8.60;99.90;;;;;;5017300;28;20709;-59
2021/04/14 11:01:46;;;;;;;2.42;1.15;;;8.30;80.20;;;;;;5017178;28;20695;-59
2021/04/14 11:04:14;;;;;;;4.15;1.15;;;8.40;99.90;;;;;;5016760;28;20174;-59
2021/04/14 11:06:41;;;;;;;3.00;1.08;;;8.70;17.00;;;;;;5016783;28;20514;-59
2021/04/14 11:09:08;;;;;;;2.22;0.93;;;8.70;1.00;;;;;;5016804;28;20273;-59
2021/04/14 11:11:36;;;;;;;4.90;1.48;;;8.30;1.00;;;;;;5017084;28;20189;-59
2021/04/14 11:14:04;;;;;;;1.88;0.88;;;8.60;1.00;;;;;;5016796;28;20728;-59
2021/04/14 11:16:31;;;;;;;3.80;1.15;;;8.80;1.00;;;;;;5012735;28;20197;-59
2021/04/14 11:18:57;;;;;;;3.08;1.00;;;8.80;1.00;;;;;;5017032;28;20320;-63
2021/04/14 11:21:33;;;;;;;1.77;0.97;;;8.90;1.00;;;;;;5027715;28;20185;-60
2021/04/14 11:24:04;;;;;;;1.95;0.70;;;8.70;1.00;;;;;;5027706;28;20425;-60
2021/04/14 11:26:35;;;;;;;3.20;0.90;;;8.50;1.00;;;;;;5036722;28;20181;-60
2021/04/14 11:29:00;;;;;;;3.20;1.20;;;8.80;1.00;;;;;;5015133;28;20182;-61
2021/04/14 11:31:41;;;;;;;1.40;0.70;;;8.60;1.00;;;;;;5016098;28;20195;-63
2021/04/14 11:34:20;;;;;;;2.28;1.17;;;8.80;1.00;;;;;;5026230;28;20204;-63
2021/04/14 11:37:03;;;;;;;1.65;0.90;;;9.40;1.00;;;;;;5027250;28;20634;-62
2021/04/14 11:39:57;;;;;;;4.07;1.65;;;9.40;1.00;;;;;;5013793;28;20682;-62
2021/04/14 11:42:53;;;;;;;3.17;1.20;;;9.00;1.00;;;;;;5023800;28;20204;-61
2021/04/14 11:45:39;;;;;;;3.35;0.75;;;9.20;1.00;;;;;;5024340;28;20190;-61
2021/04/14 11:48:07;;;;;;;2.60;1.05;;;9.20;1.00;;;;;;5014839;28;20198;-66
2021/04/14 11:50:33;;;;;;;2.00;0.77;;;9.30;1.00;;;;;;5015959;28;20179;-66
2021/04/14 11:53:01;;;;;;;1.30;0.80;;;9.50;1.00;;;;;;5028038;28;20181;-64
2021/04/14 11:55:39;;;;;;;1.67;0.90;;;9.50;1.00;;;;;;5035554;28;20197;-65
2021/04/14 11:58:18;;;;;;;3.90;1.00;;;9.90;1.00;;;;;;5035755;28;20280;-66
2021/04/14 12:00:44;;;;;;;2.95;0.90;;;10.00;1.00;;;;;;5035766;28;20572;-64
2021/04/14 12:03:16;;;;;;;3.33;1.23;;;9.50;1.00;;;;;;5035366;28;20207;-65
2021/04/14 12:05:43;;;;;;;1.13;0.70;;;9.60;1.00;;;;;;5017286;28;20616;-63
2021/04/14 12:08:09;;;;;;;0.93;0.65;;;9.80;1.00;;;;;;5014773;28;20191;-64
2021/04/14 12:10:34;;;;;;;1.07;0.83;;;9.60;1.00;;;;;;5017825;28;20227;-61
2021/04/14 12:13:00;;;;;;;2.37;0.97;;;9.40;1.00;;;;;;5018275;28;20255;-65
2021/04/14 12:15:25;;;;;;;1.43;0.70;;;9.60;1.00;;;;;;5015705;28;20198;-68
2021/04/14 12:17:51;;;;;;;3.60;1.30;;;9.50;1.00;;;;;;5014362;28;20242;-67
2021/04/14 12:20:17;;;;;;;5.13;2.13;;;10.00;1.00;;;;;;5015084;28;20474;-68
2021/04/14 12:22:42;;;;;;;3.77;1.33;;;10.00;1.00;;;;;;5016025;28;20177;-68
2021/04/14 12:25:09;;;;;;;2.27;1.37;;;10.00;1.00;;;;;;5017170;28;20179;-65
2021/04/14 12:27:35;;;;;;;1.50;0.90;;;9.70;1.00;;;;;;5031282;28;20241;-65
2021/04/14 12:30:01;;;;;;;2.43;0.93;;;9.30;1.00;;;;;;5015187;28;20289;-65
2021/04/14 12:32:26;;;;;;;1.60;0.60;;;9.20;1.00;;;;;;5015319;28;20615;-65
2021/04/14 12:34:52;;;;;;;1.93;1.27;;;9.10;1.00;;;;;;5014554;28;20190;-65
2021/04/14 12:37:17;;;;;;;1.83;1.00;;;9.30;1.00;;;;;;5015351;28;20190;-65
2021/04/14 12:39:43;;;;;;;2.20;1.00;;;9.00;99.90;;;;;;5015252;28;20317;-65
2021/04/14 12:42:10;;;;;;;2.80;1.80;;;9.40;72.20;;;;;;5015286;28;20186;-62
2021/04/14 12:44:36;;;;;;;2.25;1.80;;;9.50;99.90;;;;;;5015418;28;20194;-62
2021/04/14 12:47:02;;;;;;;2.22;0.95;;;9.00;99.90;;;;;;5015462;28;20316;-62
2021/04/14 12:49:27;;;;;;;2.80;0.90;;;8.80;99.90;;;;;;5014834;28;20265;-63
2021/04/14 12:51:59;;;;;;;2.10;1.43;;;8.60;99.90;;;;;;5014570;28;20438;-62
2021/04/14 12:54:39;;;;;;;2.60;1.52;;;8.50;99.90;;;;;;5014528;28;20756;-62
2021/04/14 12:57:13;;;;;;;1.10;0.75;;;8.50;99.90;;;;;;5015144;28;20196;-63
2021/04/14 12:59:41;;;;;;;0.82;0.40;;;7.80;99.90;;;;;;5014891;28;20597;-63
2021/04/14 13:02:23;;;;;;;0.75;0.65;;;6.90;1.00;;;;;;5014411;28;20632;-63
2021/04/14 13:05:13;;;;;;;2.22;0.65;;;6.90;1.00;;;;;;5014274;28;20189;-64
2021/04/14 13:08:12;;;;;;;1.02;0.73;;;7.10;1.00;;;;;;5013338;28;20174;-63
2021/04/14 13:10:45;;;;;;;4.20;1.40;;;7.10;1.00;;;;;;5014466;28;20188;-64
2021/04/14 13:13:11;;;;;;;1.92;1.10;;;7.10;99.90;;;;;;5014347;28;20239;-65
2021/04/14 13:15:43;;;;;;;6.22;1.63;;;6.80;1.00;;;;;;5029315;28;20289;-64
2021/04/14 13:18:10;;;;;;;1.17;0.90;;;6.80;99.90;;;;;;5013482;28;20307;-64